sensor_id;sensor_type;location;lat;lon;timestamp;P1;durP1;ratioP1;P2;durP2;ratioP2
64022;SDS011;50264;52.088;5.296;2023-05-16T00:02:25;16.2;;;3.9;;
64022;SDS011;50264;52.088;5.296;2023-05-16T00:04:01;12.9;;;3.6;;
64022;SDS011;50264;52.088;5.296;2023-05-16T00:05:37;17.3;;;3.6;;
64022;SDS011;50264;52.088;5.296;2023-05-16T00:07:13;16.0;;;4.1;;
64022;SDS011;50264;52.088;5.296;2023-05-16T00:10:25;19.61;;;4.2;;
64022;SDS011;50264;52.088;5.296;2023-05-16T00:12:02;19.41;;;4.0;;
64022;SDS011;50264;52.088;5.296;2023-05-16T00:13:38;18.3;;;3.4;;
64022;SDS011;50264;52.088;5.296;2023-05-16T00:16:50;14.7;;;3.3;;
64022;SDS011;50264;52.088;5.296;2023-05-16T00:18:26;13.2;;;3.5;;
64022;SDS011;50264;52.088;5.296;2023-05-16T00:20:03;16.5;;;3.5;;
64022;SDS011;50264;52.088;5.296;2023-05-16T00:23:16;10.3;;;3.3;;
64022;SDS011;50264;52.088;5.296;2023-05-16T00:24:52;18.8;;;3.7;;
64022;SDS011;50264;52.088;5.296;2023-05-16T00:26:28;8.81;;;2.6;;
64022;SDS011;50264;52.088;5.296;2023-05-16T00:28:04;14.4;;;3.5;;
64022;SDS011;50264;52.088;5.296;2023-05-16T00:31:17;14.8;;;3.5;;
64022;SDS011;50264;52.088;5.296;2023-05-16T00:32:53;16.0;;;3.6;;
64022;SDS011;50264;52.088;5.296;2023-05-16T00:34:29;13.9;;;3.2;;
64022;SDS011;50264;52.088;5.296;2023-05-16T00:37:42;16.2;;;4.0;;
64022;SDS011;50264;52.088;5.296;2023-05-16T00:39:18;11.9;;;3.4;;
64022;SDS011;50264;52.088;5.296;2023-05-16T00:40:55;21.4;;;3.7;;
64022;SDS011;50264;52.088;5.296;2023-05-16T00:44:07;14.5;;;3.5;;
64022;SDS011;50264;52.088;5.296;2023-05-16T00:45:43;16.5;;;4.1;;
64022;SDS011;50264;52.088;5.296;2023-05-16T00:47:19;9.21;;;3.3;;
64022;SDS011;50264;52.088;5.296;2023-05-16T00:50:32;12.1;;;3.6;;
64022;SDS011;50264;52.088;5.296;2023-05-16T00:52:09;14.9;;;3.2;;
64022;SDS011;50264;52.088;5.296;2023-05-16T00:53:45;14.0;;;3.3;;
64022;SDS011;50264;52.088;5.296;2023-05-16T00:55:21;11.3;;;3.4;;
64022;SDS011;50264;52.088;5.296;2023-05-16T00:58:34;14.5;;;3.2;;
64022;SDS011;50264;52.088;5.296;2023-05-16T01:00:11;23.2;;;4.0;;
64022;SDS011;50264;52.088;5.296;2023-05-16T01:01:48;17.5;;;3.8;;
64022;SDS011;50264;52.088;5.296;2023-05-16T01:05:02;14.6;;;3.5;;
64022;SDS011;50264;52.088;5.296;2023-05-16T01:06:39;14.4;;;3.5;;
64022;SDS011;50264;52.088;5.296;2023-05-16T01:08:16;9.81;;;2.6;;
64022;SDS011;50264;52.088;5.296;2023-05-16T01:11:30;14.4;;;3.7;;
64022;SDS011;50264;52.088;5.296;2023-05-16T01:13:15;15.1;;;3.7;;
64022;SDS011;50264;52.088;5.296;2023-05-16T01:14:59;12.7;;;3.5;;
64022;SDS011;50264;52.088;5.296;2023-05-16T01:16:41;15.9;;;4.2;;
64022;SDS011;50264;52.088;5.296;2023-05-16T01:18:28;17.0;;;3.8;;
64022;SDS011;50264;52.088;5.296;2023-05-16T01:22:05;14.0;;;4.0;;
64022;SDS011;50264;52.088;5.296;2023-05-16T01:23:50;11.2;;;3.3;;
64022;SDS011;50264;52.088;5.296;2023-05-16T01:25:31;11.3;;;3.6;;
64022;SDS011;50264;52.088;5.296;2023-05-16T01:27:19;14.2;;;3.6;;
64022;SDS011;50264;52.088;5.296;2023-05-16T01:28:58;12.9;;;3.4;;
64022;SDS011;50264;52.088;5.296;2023-05-16T01:32:15;12.5;;;3.5;;
64022;SDS011;50264;52.088;5.296;2023-05-16T01:33:51;13.6;;;3.9;;
64022;SDS011;50264;52.088;5.296;2023-05-16T01:35:27;14.0;;;3.6;;
64022;SDS011;50264;52.088;5.296;2023-05-16T01:38:55;16.61;;;3.6;;
64022;SDS011;50264;52.088;5.296;2023-05-16T01:40:44;17.3;;;3.9;;
64022;SDS011;50264;52.088;5.296;2023-05-16T01:42:28;16.9;;;3.8;;
64022;SDS011;50264;52.088;5.296;2023-05-16T01:44:10;12.7;;;3.3;;
64022;SDS011;50264;52.088;5.296;2023-05-16T01:46:02;10.9;;;3.0;;
64022;SDS011;50264;52.088;5.296;2023-05-16T01:47:46;12.5;;;3.3;;
64022;SDS011;50264;52.088;5.296;2023-05-16T01:51:18;13.7;;;4.0;;
64022;SDS011;50264;52.088;5.296;2023-05-16T01:52:57;13.8;;;3.3;;
64022;SDS011;50264;52.088;5.296;2023-05-16T01:54:38;10.0;;;3.1;;
64022;SDS011;50264;52.088;5.296;2023-05-16T01:56:19;18.8;;;3.5;;
64022;SDS011;50264;52.088;5.296;2023-05-16T01:59:35;12.7;;;3.2;;
64022;SDS011;50264;52.088;5.296;2023-05-16T02:01:13;9.71;;;3.2;;
64022;SDS011;50264;52.088;5.296;2023-05-16T02:02:49;16.0;;;3.1;;
64022;SDS011;50264;52.088;5.296;2023-05-16T02:04:25;10.1;;;3.0;;
64022;SDS011;50264;52.088;5.296;2023-05-16T02:07:38;17.2;;;3.8;;
64022;SDS011;50264;52.088;5.296;2023-05-16T02:09:14;21.2;;;4.1;;
64022;SDS011;50264;52.088;5.296;2023-05-16T02:10:50;13.6;;;3.4;;
64022;SDS011;50264;52.088;5.296;2023-05-16T02:14:02;19.3;;;3.6;;
64022;SDS011;50264;52.088;5.296;2023-05-16T02:15:38;12.3;;;3.4;;
64022;SDS011;50264;52.088;5.296;2023-05-16T02:17:14;10.0;;;3.4;;
64022;SDS011;50264;52.088;5.296;2023-05-16T02:20:27;14.6;;;3.1;;
64022;SDS011;50264;52.088;5.296;2023-05-16T02:22:03;16.9;;;3.5;;
64022;SDS011;50264;52.088;5.296;2023-05-16T02:23:39;13.2;;;3.4;;
64022;SDS011;50264;52.088;5.296;2023-05-16T02:25:15;9.31;;;2.9;;
64022;SDS011;50264;52.088;5.296;2023-05-16T02:28:28;16.61;;;3.0;;
64022;SDS011;50264;52.088;5.296;2023-05-16T02:30:04;12.5;;;2.9;;
64022;SDS011;50264;52.088;5.296;2023-05-16T02:31:41;14.4;;;3.1;;
64022;SDS011;50264;52.088;5.296;2023-05-16T02:34:53;10.21;;;3.4;;
64022;SDS011;50264;52.088;5.296;2023-05-16T02:36:29;14.5;;;3.5;;
64022;SDS011;50264;52.088;5.296;2023-05-16T02:38:06;14.9;;;3.5;;
64022;SDS011;50264;52.088;5.296;2023-05-16T02:41:19;17.5;;;3.1;;
64022;SDS011;50264;52.088;5.296;2023-05-16T02:42:55;13.5;;;3.6;;
64022;SDS011;50264;52.088;5.296;2023-05-16T02:44:31;10.4;;;2.8;;
64022;SDS011;50264;52.088;5.296;2023-05-16T02:46:18;15.3;;;3.2;;
64022;SDS011;50264;52.088;5.296;2023-05-16T02:49:32;11.4;;;3.5;;
64022;SDS011;50264;52.088;5.296;2023-05-16T02:51:08;15.6;;;3.2;;
64022;SDS011;50264;52.088;5.296;2023-05-16T02:52:44;12.4;;;3.2;;
64022;SDS011;50264;52.088;5.296;2023-05-16T02:55:56;13.2;;;3.2;;
64022;SDS011;50264;52.088;5.296;2023-05-16T02:57:33;9.9;;;3.2;;
64022;SDS011;50264;52.088;5.296;2023-05-16T02:59:09;17.3;;;3.7;;
64022;SDS011;50264;52.088;5.296;2023-05-16T03:00:46;9.31;;;3.0;;
64022;SDS011;50264;52.088;5.296;2023-05-16T03:03:58;11.0;;;2.8;;
64022;SDS011;50264;52.088;5.296;2023-05-16T03:05:34;15.1;;;3.3;;
64022;SDS011;50264;52.088;5.296;2023-05-16T03:07:10;15.4;;;2.9;;
64022;SDS011;50264;52.088;5.296;2023-05-16T03:10:23;11.1;;;3.3;;
64022;SDS011;50264;52.088;5.296;2023-05-16T03:11:59;16.11;;;2.9;;
64022;SDS011;50264;52.088;5.296;2023-05-16T03:13:35;15.4;;;3.4;;
64022;SDS011;50264;52.088;5.296;2023-05-16T03:16:47;13.6;;;3.5;;
64022;SDS011;50264;52.088;5.296;2023-05-16T03:18:24;12.5;;;3.2;;
64022;SDS011;50264;52.088;5.296;2023-05-16T03:19:59;14.0;;;3.9;;
64022;SDS011;50264;52.088;5.296;2023-05-16T03:23:11;14.9;;;3.5;;
64022;SDS011;50264;52.088;5.296;2023-05-16T03:24:47;14.4;;;3.1;;
64022;SDS011;50264;52.088;5.296;2023-05-16T03:26:24;12.4;;;3.0;;
64022;SDS011;50264;52.088;5.296;2023-05-16T03:28:00;13.4;;;3.4;;
64022;SDS011;50264;52.088;5.296;2023-05-16T03:31:12;13.8;;;3.7;;
64022;SDS011;50264;52.088;5.296;2023-05-16T03:32:48;23.5;;;3.7;;
64022;SDS011;50264;52.088;5.296;2023-05-16T03:34:24;13.4;;;3.1;;
64022;SDS011;50264;52.088;5.296;2023-05-16T03:37:37;16.0;;;3.6;;
64022;SDS011;50264;52.088;5.296;2023-05-16T03:39:13;13.8;;;3.5;;
64022;SDS011;50264;52.088;5.296;2023-05-16T03:40:49;10.7;;;3.7;;
64022;SDS011;50264;52.088;5.296;2023-05-16T03:44:01;16.8;;;3.9;;
64022;SDS011;50264;52.088;5.296;2023-05-16T03:45:37;11.3;;;3.6;;
64022;SDS011;50264;52.088;5.296;2023-05-16T03:47:14;12.3;;;3.5;;
64022;SDS011;50264;52.088;5.296;2023-05-16T03:50:26;9.71;;;3.2;;
64022;SDS011;50264;52.088;5.296;2023-05-16T03:52:02;15.2;;;3.0;;
64022;SDS011;50264;52.088;5.296;2023-05-16T03:53:38;19.0;;;3.8;;
64022;SDS011;50264;52.088;5.296;2023-05-16T03:55:14;8.9;;;3.1;;
64022;SDS011;50264;52.088;5.296;2023-05-16T03:58:27;12.8;;;3.4;;
64022;SDS011;50264;52.088;5.296;2023-05-16T04:00:03;11.1;;;3.1;;
64022;SDS011;50264;52.088;5.296;2023-05-16T04:01:42;9.4;;;3.1;;
64022;SDS011;50264;52.088;5.296;2023-05-16T04:04:54;12.1;;;2.4;;
64022;SDS011;50264;52.088;5.296;2023-05-16T04:06:30;12.5;;;3.4;;
64022;SDS011;50264;52.088;5.296;2023-05-16T04:08:07;11.7;;;3.2;;
64022;SDS011;50264;52.088;5.296;2023-05-16T04:11:19;11.5;;;3.5;;
64022;SDS011;50264;52.088;5.296;2023-05-16T04:12:55;11.5;;;3.5;;
64022;SDS011;50264;52.088;5.296;2023-05-16T04:14:32;12.9;;;3.5;;
64022;SDS011;50264;52.088;5.296;2023-05-16T04:16:10;15.9;;;3.3;;
64022;SDS011;50264;52.088;5.296;2023-05-16T04:19:22;18.41;;;3.5;;
64022;SDS011;50264;52.088;5.296;2023-05-16T04:20:58;22.3;;;3.5;;
64022;SDS011;50264;52.088;5.296;2023-05-16T04:22:34;20.11;;;3.3;;
64022;SDS011;50264;52.088;5.296;2023-05-16T04:25:47;12.2;;;3.1;;
64022;SDS011;50264;52.088;5.296;2023-05-16T04:27:23;15.7;;;3.4;;
64022;SDS011;50264;52.088;5.296;2023-05-16T04:28:59;12.3;;;3.1;;
64022;SDS011;50264;52.088;5.296;2023-05-16T04:32:11;12.1;;;3.2;;
64022;SDS011;50264;52.088;5.296;2023-05-16T04:33:47;8.5;;;3.1;;
64022;SDS011;50264;52.088;5.296;2023-05-16T04:35:24;10.3;;;2.6;;
64022;SDS011;50264;52.088;5.296;2023-05-16T04:37:01;8.0;;;2.9;;
64022;SDS011;50264;52.088;5.296;2023-05-16T04:40:14;10.7;;;3.5;;
64022;SDS011;50264;52.088;5.296;2023-05-16T04:41:50;7.5;;;3.0;;
64022;SDS011;50264;52.088;5.296;2023-05-16T04:43:26;13.7;;;3.2;;
64022;SDS011;50264;52.088;5.296;2023-05-16T04:46:40;15.0;;;3.3;;
64022;SDS011;50264;52.088;5.296;2023-05-16T04:48:16;12.8;;;3.2;;
64022;SDS011;50264;52.088;5.296;2023-05-16T04:49:52;10.21;;;3.1;;
64022;SDS011;50264;52.088;5.296;2023-05-16T04:53:04;11.7;;;2.8;;
64022;SDS011;50264;52.088;5.296;2023-05-16T04:54:40;16.5;;;3.0;;
64022;SDS011;50264;52.088;5.296;2023-05-16T04:56:17;10.4;;;3.0;;
64022;SDS011;50264;52.088;5.296;2023-05-16T04:59:29;11.5;;;3.2;;
64022;SDS011;50264;52.088;5.296;2023-05-16T05:01:05;10.9;;;2.8;;
64022;SDS011;50264;52.088;5.296;2023-05-16T05:02:41;11.3;;;3.1;;
64022;SDS011;50264;52.088;5.296;2023-05-16T05:04:18;7.2;;;2.6;;
64022;SDS011;50264;52.088;5.296;2023-05-16T05:07:30;12.5;;;3.1;;
64022;SDS011;50264;52.088;5.296;2023-05-16T05:09:07;12.4;;;2.7;;
64022;SDS011;50264;52.088;5.296;2023-05-16T05:10:43;12.0;;;3.2;;
64022;SDS011;50264;52.088;5.296;2023-05-16T05:13:56;9.21;;;2.9;;
64022;SDS011;50264;52.088;5.296;2023-05-16T05:15:32;8.6;;;2.9;;
64022;SDS011;50264;52.088;5.296;2023-05-16T05:17:08;10.0;;;2.9;;
64022;SDS011;50264;52.088;5.296;2023-05-16T05:20:20;11.9;;;3.0;;
64022;SDS011;50264;52.088;5.296;2023-05-16T05:21:56;8.5;;;2.5;;
64022;SDS011;50264;52.088;5.296;2023-05-16T05:23:33;11.9;;;2.7;;
64022;SDS011;50264;52.088;5.296;2023-05-16T05:25:09;9.5;;;3.0;;
64022;SDS011;50264;52.088;5.296;2023-05-16T05:28:21;12.7;;;3.0;;
64022;SDS011;50264;52.088;5.296;2023-05-16T05:29:56;17.0;;;3.5;;
64022;SDS011;50264;52.088;5.296;2023-05-16T05:31:32;13.8;;;2.9;;
64022;SDS011;50264;52.088;5.296;2023-05-16T05:34:46;12.5;;;2.9;;
64022;SDS011;50264;52.088;5.296;2023-05-16T05:36:22;14.5;;;3.2;;
64022;SDS011;50264;52.088;5.296;2023-05-16T05:37:58;17.2;;;3.1;;
64022;SDS011;50264;52.088;5.296;2023-05-16T05:41:11;11.2;;;2.21;;
64022;SDS011;50264;52.088;5.296;2023-05-16T05:42:48;13.1;;;2.9;;
64022;SDS011;50264;52.088;5.296;2023-05-16T05:44:24;9.9;;;2.6;;
64022;SDS011;50264;52.088;5.296;2023-05-16T05:47:36;10.4;;;2.8;;
64022;SDS011;50264;52.088;5.296;2023-05-16T05:49:12;8.4;;;2.31;;
64022;SDS011;50264;52.088;5.296;2023-05-16T05:50:48;10.9;;;2.8;;
64022;SDS011;50264;52.088;5.296;2023-05-16T05:52:25;10.9;;;3.2;;
64022;SDS011;50264;52.088;5.296;2023-05-16T05:55:38;10.5;;;2.6;;
64022;SDS011;50264;52.088;5.296;2023-05-16T05:57:14;14.3;;;2.7;;
64022;SDS011;50264;52.088;5.296;2023-05-16T05:58:50;14.2;;;2.8;;
64022;SDS011;50264;52.088;5.296;2023-05-16T06:02:03;8.1;;;2.31;;
64022;SDS011;50264;52.088;5.296;2023-05-16T06:03:39;13.7;;;2.9;;
64022;SDS011;50264;52.088;5.296;2023-05-16T06:05:15;10.21;;;2.7;;
64022;SDS011;50264;52.088;5.296;2023-05-16T06:08:27;12.2;;;2.6;;
64022;SDS011;50264;52.088;5.296;2023-05-16T06:10:04;10.0;;;2.7;;
64022;SDS011;50264;52.088;5.296;2023-05-16T06:11:41;11.1;;;2.7;;
64022;SDS011;50264;52.088;5.296;2023-05-16T06:16:29;19.3;;;2.5;;
64022;SDS011;50264;52.088;5.296;2023-05-16T06:18:05;12.7;;;2.8;;
64022;SDS011;50264;52.088;5.296;2023-05-16T06:19:42;14.4;;;3.0;;
64022;SDS011;50264;52.088;5.296;2023-05-16T06:22:54;14.6;;;2.9;;
64022;SDS011;50264;52.088;5.296;2023-05-16T06:24:30;8.9;;;2.6;;
64022;SDS011;50264;52.088;5.296;2023-05-16T06:26:06;13.0;;;2.6;;
64022;SDS011;50264;52.088;5.296;2023-05-16T06:29:19;14.8;;;2.9;;
64022;SDS011;50264;52.088;5.296;2023-05-16T06:30:55;11.2;;;2.8;;
64022;SDS011;50264;52.088;5.296;2023-05-16T06:32:31;16.0;;;2.6;;
64022;SDS011;50264;52.088;5.296;2023-05-16T06:35:43;5.4;;;1.9;;
64022;SDS011;50264;52.088;5.296;2023-05-16T06:37:20;6.8;;;2.1;;
64022;SDS011;50264;52.088;5.296;2023-05-16T06:38:57;16.0;;;2.4;;
64022;SDS011;50264;52.088;5.296;2023-05-16T06:40:33;6.6;;;2.0;;
64022;SDS011;50264;52.088;5.296;2023-05-16T06:43:45;12.3;;;2.5;;
64022;SDS011;50264;52.088;5.296;2023-05-16T06:45:21;8.4;;;2.1;;
64022;SDS011;50264;52.088;5.296;2023-05-16T06:46:57;9.0;;;2.1;;
64022;SDS011;50264;52.088;5.296;2023-05-16T06:50:10;8.0;;;1.9;;
64022;SDS011;50264;52.088;5.296;2023-05-16T06:51:46;6.9;;;2.1;;
64022;SDS011;50264;52.088;5.296;2023-05-16T06:53:22;7.2;;;1.9;;
64022;SDS011;50264;52.088;5.296;2023-05-16T06:56:34;9.4;;;2.1;;
64022;SDS011;50264;52.088;5.296;2023-05-16T06:58:11;6.7;;;1.7;;
64022;SDS011;50264;52.088;5.296;2023-05-16T06:59:47;10.5;;;1.9;;
64022;SDS011;50264;52.088;5.296;2023-05-16T07:01:23;4.61;;;1.9;;
64022;SDS011;50264;52.088;5.296;2023-05-16T07:04:34;4.41;;;1.5;;
64022;SDS011;50264;52.088;5.296;2023-05-16T07:06:11;9.0;;;1.8;;
64022;SDS011;50264;52.088;5.296;2023-05-16T07:07:47;4.8;;;1.6;;
64022;SDS011;50264;52.088;5.296;2023-05-16T07:10:59;6.1;;;1.6;;
64022;SDS011;50264;52.088;5.296;2023-05-16T07:12:35;5.2;;;1.6;;
64022;SDS011;50264;52.088;5.296;2023-05-16T07:14:11;5.9;;;1.9;;
64022;SDS011;50264;52.088;5.296;2023-05-16T07:17:24;7.8;;;1.8;;
64022;SDS011;50264;52.088;5.296;2023-05-16T07:19:00;6.2;;;1.3;;
64022;SDS011;50264;52.088;5.296;2023-05-16T07:20:36;11.6;;;1.9;;
64022;SDS011;50264;52.088;5.296;2023-05-16T07:23:49;6.6;;;1.7;;
64022;SDS011;50264;52.088;5.296;2023-05-16T07:25:25;5.7;;;1.7;;
64022;SDS011;50264;52.088;5.296;2023-05-16T07:27:01;8.5;;;1.7;;
64022;SDS011;50264;52.088;5.296;2023-05-16T07:28:37;6.1;;;1.6;;
64022;SDS011;50264;52.088;5.296;2023-05-16T07:31:50;6.3;;;1.5;;
64022;SDS011;50264;52.088;5.296;2023-05-16T07:33:26;6.3;;;1.5;;
64022;SDS011;50264;52.088;5.296;2023-05-16T07:35:02;9.1;;;1.8;;
64022;SDS011;50264;52.088;5.296;2023-05-16T07:38:16;8.2;;;1.8;;
64022;SDS011;50264;52.088;5.296;2023-05-16T07:39:52;9.4;;;2.0;;
64022;SDS011;50264;52.088;5.296;2023-05-16T07:41:29;7.2;;;2.4;;
64022;SDS011;50264;52.088;5.296;2023-05-16T07:44:42;6.2;;;2.1;;
64022;SDS011;50264;52.088;5.296;2023-05-16T07:46:18;5.3;;;1.5;;
64022;SDS011;50264;52.088;5.296;2023-05-16T07:47:54;5.0;;;1.4;;
64022;SDS011;50264;52.088;5.296;2023-05-16T07:49:30;4.41;;;1.5;;
64022;SDS011;50264;52.088;5.296;2023-05-16T07:52:43;5.8;;;1.6;;
64022;SDS011;50264;52.088;5.296;2023-05-16T07:54:19;8.71;;;1.7;;
64022;SDS011;50264;52.088;5.296;2023-05-16T07:55:55;5.4;;;1.5;;
64022;SDS011;50264;52.088;5.296;2023-05-16T07:59:07;5.11;;;1.4;;
64022;SDS011;50264;52.088;5.296;2023-05-16T08:00:44;5.4;;;1.6;;
64022;SDS011;50264;52.088;5.296;2023-05-16T08:02:20;6.5;;;1.7;;
64022;SDS011;50264;52.088;5.296;2023-05-16T08:05:33;5.5;;;2.0;;
64022;SDS011;50264;52.088;5.296;2023-05-16T08:07:09;5.9;;;1.4;;
64022;SDS011;50264;52.088;5.296;2023-05-16T08:08:46;8.9;;;1.9;;
64022;SDS011;50264;52.088;5.296;2023-05-16T08:11:58;4.91;;;1.5;;
64022;SDS011;50264;52.088;5.296;2023-05-16T08:13:34;4.5;;;1.5;;
64022;SDS011;50264;52.088;5.296;2023-05-16T08:15:10;7.2;;;1.6;;
64022;SDS011;50264;52.088;5.296;2023-05-16T08:16:46;3.7;;;1.5;;
64022;SDS011;50264;52.088;5.296;2023-05-16T08:19:58;7.0;;;1.4;;
64022;SDS011;50264;52.088;5.296;2023-05-16T08:21:35;8.31;;;1.8;;
64022;SDS011;50264;52.088;5.296;2023-05-16T08:23:11;8.71;;;1.9;;
64022;SDS011;50264;52.088;5.296;2023-05-16T08:26:25;4.8;;;1.6;;
64022;SDS011;50264;52.088;5.296;2023-05-16T08:28:01;6.0;;;1.7;;
64022;SDS011;50264;52.088;5.296;2023-05-16T08:29:38;5.6;;;1.8;;
64022;SDS011;50264;52.088;5.296;2023-05-16T08:32:50;7.4;;;1.9;;
64022;SDS011;50264;52.088;5.296;2023-05-16T08:34:26;5.9;;;1.6;;
64022;SDS011;50264;52.088;5.296;2023-05-16T08:36:05;5.11;;;1.5;;
64022;SDS011;50264;52.088;5.296;2023-05-16T08:37:42;4.91;;;1.7;;
64022;SDS011;50264;52.088;5.296;2023-05-16T08:40:55;5.3;;;1.8;;
64022;SDS011;50264;52.088;5.296;2023-05-16T08:42:32;5.9;;;1.8;;
64022;SDS011;50264;52.088;5.296;2023-05-16T08:44:08;6.3;;;1.6;;
64022;SDS011;50264;52.088;5.296;2023-05-16T08:47:20;4.2;;;1.3;;
64022;SDS011;50264;52.088;5.296;2023-05-16T08:49:01;3.8;;;1.6;;
64022;SDS011;50264;52.088;5.296;2023-05-16T08:50:39;4.91;;;1.5;;
64022;SDS011;50264;52.088;5.296;2023-05-16T08:52:16;7.6;;;1.6;;
64022;SDS011;50264;52.088;5.296;2023-05-16T08:55:37;4.1;;;1.4;;
64022;SDS011;50264;52.088;5.296;2023-05-16T08:57:15;4.8;;;1.5;;
64022;SDS011;50264;52.088;5.296;2023-05-16T08:58:53;4.91;;;1.3;;
64022;SDS011;50264;52.088;5.296;2023-05-16T09:02:06;4.41;;;1.4;;
64022;SDS011;50264;52.088;5.296;2023-05-16T09:03:43;6.2;;;1.3;;
64022;SDS011;50264;52.088;5.296;2023-05-16T09:05:20;5.3;;;1.8;;
64022;SDS011;50264;52.088;5.296;2023-05-16T09:06:58;5.6;;;1.7;;
64022;SDS011;50264;52.088;5.296;2023-05-16T09:10:10;2.5;;;1.4;;
64022;SDS011;50264;52.088;5.296;2023-05-16T09:11:47;2.5;;;1.4;;
64022;SDS011;50264;52.088;5.296;2023-05-16T09:13:24;4.61;;;1.4;;
64022;SDS011;50264;52.088;5.296;2023-05-16T09:16:39;4.61;;;1.4;;
64022;SDS011;50264;52.088;5.296;2023-05-16T09:18:15;5.6;;;1.9;;
64022;SDS011;50264;52.088;5.296;2023-05-16T09:19:51;3.9;;;1.3;;
64022;SDS011;50264;52.088;5.296;2023-05-16T09:23:05;7.7;;;1.7;;
64022;SDS011;50264;52.088;5.296;2023-05-16T09:24:43;4.8;;;1.9;;
64022;SDS011;50264;52.088;5.296;2023-05-16T09:26:20;4.0;;;1.5;;
64022;SDS011;50264;52.088;5.296;2023-05-16T09:27:57;5.8;;;1.5;;
64022;SDS011;50264;52.088;5.296;2023-05-16T09:31:19;7.7;;;1.7;;
64022;SDS011;50264;52.088;5.296;2023-05-16T09:32:56;8.5;;;1.7;;
64022;SDS011;50264;52.088;5.296;2023-05-16T09:34:36;7.0;;;1.5;;
64022;SDS011;50264;52.088;5.296;2023-05-16T09:39:26;6.1;;;1.7;;
64022;SDS011;50264;52.088;5.296;2023-05-16T09:41:02;4.7;;;1.4;;
64022;SDS011;50264;52.088;5.296;2023-05-16T09:42:38;7.0;;;1.8;;
64022;SDS011;50264;52.088;5.296;2023-05-16T09:45:53;4.41;;;1.3;;
64022;SDS011;50264;52.088;5.296;2023-05-16T09:47:29;4.8;;;1.4;;
64022;SDS011;50264;52.088;5.296;2023-05-16T09:49:05;5.0;;;1.4;;
64022;SDS011;50264;52.088;5.296;2023-05-16T09:52:25;5.2;;;1.7;;
64022;SDS011;50264;52.088;5.296;2023-05-16T09:54:01;3.7;;;1.5;;
64022;SDS011;50264;52.088;5.296;2023-05-16T09:55:42;5.2;;;1.5;;
64022;SDS011;50264;52.088;5.296;2023-05-16T09:57:18;8.5;;;1.7;;
64022;SDS011;50264;52.088;5.296;2023-05-16T10:00:31;5.2;;;1.9;;
64022;SDS011;50264;52.088;5.296;2023-05-16T10:02:08;4.91;;;1.6;;
64022;SDS011;50264;52.088;5.296;2023-05-16T10:03:45;6.3;;;1.5;;
64022;SDS011;50264;52.088;5.296;2023-05-16T10:07:00;5.2;;;1.11;;
64022;SDS011;50264;52.088;5.296;2023-05-16T10:08:38;6.9;;;1.2;;
64022;SDS011;50264;52.088;5.296;2023-05-16T10:11:54;7.3;;;1.6;;
64022;SDS011;50264;52.088;5.296;2023-05-16T10:15:10;4.61;;;1.8;;
64022;SDS011;50264;52.088;5.296;2023-05-16T10:16:46;6.7;;;1.5;;
64022;SDS011;50264;52.088;5.296;2023-05-16T10:18:27;7.2;;;2.31;;
64022;SDS011;50264;52.088;5.296;2023-05-16T10:20:06;4.1;;;1.3;;
64022;SDS011;50264;52.088;5.296;2023-05-16T10:23:27;17.3;;;8.6;;
64022;SDS011;50264;52.088;5.296;2023-05-16T10:25:07;5.3;;;1.6;;
64022;SDS011;50264;52.088;5.296;2023-05-16T10:26:50;5.6;;;1.4;;
64022;SDS011;50264;52.088;5.296;2023-05-16T10:28:27;7.0;;;1.7;;
64022;SDS011;50264;52.088;5.296;2023-05-16T10:31:42;9.9;;;1.5;;
64022;SDS011;50264;52.088;5.296;2023-05-16T10:33:18;9.6;;;1.6;;
64022;SDS011;50264;52.088;5.296;2023-05-16T10:34:55;9.21;;;1.7;;
64022;SDS011;50264;52.088;5.296;2023-05-16T10:38:08;3.3;;;1.4;;
64022;SDS011;50264;52.088;5.296;2023-05-16T10:39:46;4.7;;;1.2;;
64022;SDS011;50264;52.088;5.296;2023-05-16T10:41:22;10.6;;;2.21;;
64022;SDS011;50264;52.088;5.296;2023-05-16T10:44:38;3.9;;;1.7;;
64022;SDS011;50264;52.088;5.296;2023-05-16T10:46:14;5.9;;;1.6;;
64022;SDS011;50264;52.088;5.296;2023-05-16T10:47:51;4.3;;;1.5;;
64022;SDS011;50264;52.088;5.296;2023-05-16T10:49:29;3.5;;;1.4;;
64022;SDS011;50264;52.088;5.296;2023-05-16T10:53:18;5.8;;;1.5;;
64022;SDS011;50264;52.088;5.296;2023-05-16T10:54:56;10.5;;;1.9;;
64022;SDS011;50264;52.088;5.296;2023-05-16T10:56:38;5.8;;;1.6;;
64022;SDS011;50264;52.088;5.296;2023-05-16T10:58:18;4.3;;;1.3;;
64022;SDS011;50264;52.088;5.296;2023-05-16T10:59:57;6.2;;;1.8;;
64022;SDS011;50264;52.088;5.296;2023-05-16T11:03:18;5.5;;;1.6;;
64022;SDS011;50264;52.088;5.296;2023-05-16T11:04:58;3.4;;;1.4;;
64022;SDS011;50264;52.088;5.296;2023-05-16T11:06:51;4.0;;;1.7;;
64022;SDS011;50264;52.088;5.296;2023-05-16T11:08:28;8.31;;;1.8;;
64022;SDS011;50264;52.088;5.296;2023-05-16T11:11:44;4.61;;;1.2;;
64022;SDS011;50264;52.088;5.296;2023-05-16T11:13:23;4.61;;;1.5;;
64022;SDS011;50264;52.088;5.296;2023-05-16T11:14:59;4.3;;;1.6;;
64022;SDS011;50264;52.088;5.296;2023-05-16T11:16:35;4.91;;;1.6;;
64022;SDS011;50264;52.088;5.296;2023-05-16T11:19:54;3.5;;;1.4;;
64022;SDS011;50264;52.088;5.296;2023-05-16T11:22:37;3.9;;;1.3;;
64022;SDS011;50264;52.088;5.296;2023-05-16T11:24:29;7.8;;;1.7;;
64022;SDS011;50264;52.088;5.296;2023-05-16T11:26:07;3.7;;;1.6;;
64022;SDS011;50264;52.088;5.296;2023-05-16T11:27:44;6.6;;;1.3;;
64022;SDS011;50264;52.088;5.296;2023-05-16T11:29:22;7.3;;;1.5;;
64022;SDS011;50264;52.088;5.296;2023-05-16T11:32:36;7.9;;;1.4;;
64022;SDS011;50264;52.088;5.296;2023-05-16T11:34:16;6.1;;;1.5;;
64022;SDS011;50264;52.088;5.296;2023-05-16T11:36:00;10.7;;;1.7;;
64022;SDS011;50264;52.088;5.296;2023-05-16T11:37:37;3.4;;;1.3;;
64022;SDS011;50264;52.088;5.296;2023-05-16T11:40:50;3.4;;;1.3;;
64022;SDS011;50264;52.088;5.296;2023-05-16T11:42:28;6.6;;;1.5;;
64022;SDS011;50264;52.088;5.296;2023-05-16T11:44:05;2.5;;;1.11;;
64022;SDS011;50264;52.088;5.296;2023-05-16T11:47:17;2.8;;;1.4;;
64022;SDS011;50264;52.088;5.296;2023-05-16T11:48:53;5.4;;;1.6;;
64022;SDS011;50264;52.088;5.296;2023-05-16T11:50:29;3.6;;;1.7;;
64022;SDS011;50264;52.088;5.296;2023-05-16T11:52:08;4.2;;;1.5;;
64022;SDS011;50264;52.088;5.296;2023-05-16T11:55:22;6.1;;;1.5;;
64022;SDS011;50264;52.088;5.296;2023-05-16T11:57:01;4.5;;;1.5;;
64022;SDS011;50264;52.088;5.296;2023-05-16T11:58:37;6.1;;;1.5;;
64022;SDS011;50264;52.088;5.296;2023-05-16T12:01:52;6.1;;;1.5;;
64022;SDS011;50264;52.088;5.296;2023-05-16T12:03:29;3.1;;;1.4;;
64022;SDS011;50264;52.088;5.296;2023-05-16T12:05:06;3.1;;;1.3;;
64022;SDS011;50264;52.088;5.296;2023-05-16T12:08:19;5.9;;;1.6;;
64022;SDS011;50264;52.088;5.296;2023-05-16T12:09:56;4.8;;;1.2;;
64022;SDS011;50264;52.088;5.296;2023-05-16T12:11:32;8.0;;;1.7;;
64022;SDS011;50264;52.088;5.296;2023-05-16T12:13:09;3.8;;;1.11;;
64022;SDS011;50264;52.088;5.296;2023-05-16T12:16:22;5.0;;;1.4;;
64022;SDS011;50264;52.088;5.296;2023-05-16T12:17:58;5.9;;;1.7;;
64022;SDS011;50264;52.088;5.296;2023-05-16T12:19:35;5.4;;;1.3;;
64022;SDS011;50264;52.088;5.296;2023-05-16T12:22:48;8.71;;;1.7;;
64022;SDS011;50264;52.088;5.296;2023-05-16T12:24:28;5.2;;;1.5;;
64022;SDS011;50264;52.088;5.296;2023-05-16T12:26:05;7.3;;;1.9;;
64022;SDS011;50264;52.088;5.296;2023-05-16T12:27:41;8.2;;;1.5;;
64022;SDS011;50264;52.088;5.296;2023-05-16T12:30:55;5.2;;;1.7;;
64022;SDS011;50264;52.088;5.296;2023-05-16T12:32:35;6.4;;;1.5;;
64022;SDS011;50264;52.088;5.296;2023-05-16T12:34:14;4.91;;;1.4;;
64022;SDS011;50264;52.088;5.296;2023-05-16T12:37:26;5.3;;;1.4;;
64022;SDS011;50264;52.088;5.296;2023-05-16T12:39:02;7.6;;;1.8;;
64022;SDS011;50264;52.088;5.296;2023-05-16T12:40:40;4.1;;;1.4;;
64022;SDS011;50264;52.088;5.296;2023-05-16T12:44:04;7.4;;;1.7;;
64022;SDS011;50264;52.088;5.296;2023-05-16T12:45:41;5.2;;;1.7;;
64022;SDS011;50264;52.088;5.296;2023-05-16T12:47:23;7.2;;;1.9;;
64022;SDS011;50264;52.088;5.296;2023-05-16T12:49:09;6.7;;;1.9;;
64022;SDS011;50264;52.088;5.296;2023-05-16T12:50:46;6.9;;;1.9;;
64022;SDS011;50264;52.088;5.296;2023-05-16T12:54:06;4.1;;;1.6;;
64022;SDS011;50264;52.088;5.296;2023-05-16T12:55:43;4.7;;;1.7;;
64022;SDS011;50264;52.088;5.296;2023-05-16T12:57:20;4.3;;;1.6;;
64022;SDS011;50264;52.088;5.296;2023-05-16T13:00:32;4.3;;;1.5;;